createdAt,value
2019-01-13T00:00:55.032Z,7.42
2019-01-13T00:01:55.022Z,7.54
2019-01-13T00:02:55.041Z,7.60
2019-01-13T00:03:56.809Z,7.52
2019-01-13T00:04:55.781Z,7.55
2019-01-13T00:05:55.796Z,7.60
2019-01-13T00:06:54.974Z,7.68
2019-01-13T00:07:54.954Z,7.68
2019-01-13T00:08:54.973Z,7.64
2019-01-13T00:09:59.803Z,7.54
2019-01-13T00:10:55.782Z,7.68
2019-01-13T00:11:55.780Z,7.64
2019-01-13T00:13:01.785Z,7.52
2019-01-13T00:13:55.782Z,7.61
2019-01-13T00:14:54.905Z,7.58
2019-01-13T00:15:54.873Z,7.66
2019-01-13T00:16:54.853Z,7.62
2019-01-13T00:17:55.781Z,7.61
2019-01-13T00:18:54.859Z,7.60
2019-01-13T00:19:54.914Z,7.57
2019-01-13T00:20:54.814Z,7.58
2019-01-13T00:21:54.863Z,7.71
2019-01-13T00:22:54.896Z,7.61
2019-01-13T00:23:59.358Z,7.62
2019-01-13T00:24:54.770Z,7.62
2019-01-13T00:26:01.785Z,7.64
2019-01-13T00:26:57.301Z,7.62
2019-01-13T00:27:56.302Z,7.64
2019-01-13T00:28:55.778Z,7.62
2019-01-13T00:29:54.709Z,7.64
2019-01-13T00:30:57.279Z,7.60
2019-01-13T00:31:54.719Z,7.64
2019-01-13T00:32:56.296Z,7.62
2019-01-13T00:33:54.705Z,7.64
2019-01-13T00:34:54.658Z,7.62
2019-01-13T00:35:54.644Z,7.69
2019-01-13T00:36:54.635Z,7.69
2019-01-13T00:37:54.656Z,7.74
2019-01-13T00:38:56.297Z,7.69
2019-01-13T00:39:54.639Z,7.71
2019-01-13T00:40:55.791Z,7.73
2019-01-13T00:41:56.299Z,7.74
2019-01-13T00:42:54.781Z,7.77
2019-01-13T00:43:55.277Z,7.71
2019-01-13T00:44:54.613Z,7.62
2019-01-13T00:45:54.546Z,7.69
2019-01-13T00:46:54.523Z,7.69
2019-01-13T00:47:54.791Z,7.66
2019-01-13T00:49:15.781Z,7.73
2019-01-13T00:49:54.494Z,7.74
2019-01-13T00:50:54.480Z,7.71
2019-01-13T00:51:54.478Z,7.76
2019-01-13T00:52:54.456Z,7.74
2019-01-13T00:53:54.484Z,7.71
2019-01-13T00:54:54.796Z,7.76
2019-01-13T00:55:54.775Z,7.80
2019-01-13T00:56:55.277Z,7.68
2019-01-13T00:57:54.402Z,7.74
2019-01-13T00:58:56.308Z,7.77
2019-01-13T00:59:54.414Z,7.78
2019-01-13T01:00:56.304Z,7.77
2019-01-13T01:01:56.318Z,7.78
2019-01-13T01:02:54.349Z,7.81
2019-01-13T01:03:56.294Z,7.77
2019-01-13T01:04:54.331Z,7.81
2019-01-13T01:05:55.279Z,7.81
2019-01-13T01:06:54.340Z,7.78
2019-01-13T01:07:54.297Z,7.77
2019-01-13T01:08:54.300Z,7.78
2019-01-13T01:09:54.317Z,7.68
2019-01-13T01:10:54.261Z,7.76
2019-01-13T01:12:00.802Z,7.74
2019-01-13T01:12:54.287Z,7.76
2019-01-13T01:13:54.776Z,7.76
2019-01-13T01:14:54.799Z,7.77
2019-01-13T01:15:54.254Z,7.81
2019-01-13T01:16:54.267Z,7.76
2019-01-13T01:17:54.293Z,7.74
2019-01-13T01:18:54.421Z,7.69
2019-01-13T01:19:54.774Z,7.73
2019-01-13T01:20:55.787Z,7.66
2019-01-13T01:21:54.779Z,7.74
2019-01-13T01:22:55.300Z,7.74
2019-01-13T01:23:54.149Z,7.78
2019-01-13T01:24:54.878Z,7.80
2019-01-13T01:25:56.785Z,7.73
2019-01-13T01:26:54.934Z,7.84
2019-01-13T01:27:54.144Z,7.76
2019-01-13T01:28:55.824Z,7.76
2019-01-13T01:29:54.081Z,7.74
2019-01-13T01:30:54.040Z,7.81
2019-01-13T01:31:56.777Z,7.81
2019-01-13T01:32:54.019Z,7.86
2019-01-13T01:33:56.778Z,7.76
2019-01-13T01:34:54.009Z,7.77
2019-01-13T01:35:54.016Z,7.77
2019-01-13T01:36:54.337Z,7.76
2019-01-13T01:37:54.276Z,7.73
2019-01-13T01:38:53.977Z,7.71
2019-01-13T01:39:53.969Z,7.77
2019-01-13T01:40:55.797Z,7.76
2019-01-13T01:42:00.779Z,7.83
2019-01-13T01:42:53.942Z,7.77
2019-01-13T01:43:55.300Z,7.76
2019-01-13T01:44:55.797Z,7.81
2019-01-13T01:45:53.875Z,7.78
2019-01-13T01:46:53.867Z,7.78
2019-01-13T01:47:54.780Z,7.71
2019-01-13T01:48:54.779Z,7.71
2019-01-13T01:49:53.876Z,7.74
2019-01-13T01:50:55.275Z,7.81
2019-01-13T01:51:56.312Z,7.74
2019-01-13T01:52:53.808Z,7.80
2019-01-13T01:53:54.771Z,7.78
2019-01-13T01:54:53.777Z,7.77
2019-01-13T01:56:01.286Z,7.77
2019-01-13T01:57:08.271Z,7.80
2019-01-13T01:57:53.751Z,7.73
2019-01-13T01:58:53.742Z,7.80
2019-01-13T01:59:53.721Z,7.77
2019-01-13T02:00:56.012Z,7.78
2019-01-13T02:01:54.278Z,7.78
2019-01-13T02:02:54.277Z,7.87
2019-01-13T02:03:53.718Z,7.84
2019-01-13T02:04:53.664Z,7.91
2019-01-13T02:05:53.712Z,7.76
2019-01-13T02:06:53.799Z,7.88
2019-01-13T02:07:53.644Z,7.80
2019-01-13T02:08:56.327Z,7.81
2019-01-13T02:09:53.616Z,7.76
2019-01-13T02:10:56.272Z,7.76
2019-01-13T02:11:53.774Z,7.78
2019-01-13T02:12:53.641Z,7.81
2019-01-13T02:13:58.283Z,7.77
2019-01-13T02:14:54.273Z,7.81
2019-01-13T02:15:53.544Z,7.91
2019-01-13T02:16:53.538Z,7.77
2019-01-13T02:17:55.272Z,7.74
2019-01-13T02:18:53.556Z,7.76
2019-01-13T02:19:53.501Z,7.78
2019-01-13T02:20:53.785Z,7.83
2019-01-13T02:21:53.477Z,7.87
2019-01-13T02:22:58.289Z,7.94
2019-01-13T02:23:53.458Z,7.91
2019-01-13T02:24:54.270Z,7.86
2019-01-13T02:26:00.781Z,7.86
2019-01-13T02:26:53.451Z,7.77
2019-01-13T02:27:53.415Z,7.88
2019-01-13T02:28:54.276Z,7.80
2019-01-13T02:29:55.271Z,7.91
2019-01-13T02:30:53.394Z,7.87
2019-01-13T02:31:53.373Z,7.74
2019-01-13T02:32:53.796Z,7.78
2019-01-13T02:33:53.778Z,7.81
2019-01-13T02:34:54.274Z,7.71
2019-01-13T02:35:54.295Z,7.77
2019-01-13T02:36:58.281Z,7.80
2019-01-13T02:37:53.303Z,7.76
2019-01-13T02:38:53.316Z,7.81
2019-01-13T02:39:53.318Z,7.80
2019-01-13T02:40:53.266Z,7.77
2019-01-13T02:41:53.288Z,7.76
2019-01-13T02:42:55.769Z,7.76
2019-01-13T02:43:54.816Z,7.78
2019-01-13T02:44:54.799Z,7.81
2019-01-13T02:45:53.297Z,7.71
2019-01-13T02:46:54.268Z,7.66
2019-01-13T02:47:53.188Z,7.73
2019-01-13T02:48:53.217Z,7.66
2019-01-13T02:49:53.771Z,7.69
2019-01-13T02:50:53.161Z,7.62
2019-01-13T02:51:53.186Z,7.66
2019-01-13T02:52:53.138Z,7.61
2019-01-13T02:53:53.123Z,7.64
2019-01-13T02:54:53.112Z,7.64
2019-01-13T02:55:53.101Z,7.69
2019-01-13T02:56:53.107Z,7.62
2019-01-13T02:57:53.110Z,7.68
2019-01-13T02:58:53.067Z,7.64
2019-01-13T02:59:53.772Z,7.68
2019-01-13T03:00:57.341Z,7.64
2019-01-13T03:01:53.036Z,7.68
2019-01-13T03:02:53.024Z,7.61
2019-01-13T03:03:53.322Z,7.58
2019-01-13T03:04:53.772Z,7.66
2019-01-13T03:05:52.996Z,7.61
2019-01-13T03:06:55.771Z,7.58
2019-01-13T03:07:55.271Z,7.58
2019-01-13T03:08:53.280Z,7.62
2019-01-13T03:09:52.946Z,7.54
2019-01-13T03:10:52.955Z,7.61
2019-01-13T03:11:52.925Z,7.55
2019-01-13T03:12:52.916Z,7.58
2019-01-13T03:13:53.288Z,7.68
2019-01-13T03:14:52.946Z,7.64
2019-01-13T03:15:52.882Z,7.68
2019-01-13T03:16:52.869Z,7.62
2019-01-13T03:17:52.876Z,7.55
2019-01-13T03:18:52.848Z,7.61
2019-01-13T03:19:53.773Z,7.64
2019-01-13T03:20:52.873Z,7.68
2019-01-13T03:21:52.814Z,7.55
2019-01-13T03:22:55.273Z,7.68
2019-01-13T03:23:52.792Z,7.58
2019-01-13T03:24:55.771Z,7.62
2019-01-13T03:25:52.775Z,7.57
2019-01-13T03:26:54.288Z,7.64
2019-01-13T03:27:52.751Z,7.68
2019-01-13T03:28:52.782Z,7.57
2019-01-13T03:29:52.768Z,7.55
2019-01-13T03:30:52.767Z,7.66
2019-01-13T03:31:52.718Z,7.61
2019-01-13T03:32:54.297Z,7.62
2019-01-13T03:33:54.290Z,7.68
2019-01-13T03:34:53.270Z,7.61
2019-01-13T03:35:52.701Z,7.64
2019-01-13T03:36:52.791Z,7.55
2019-01-13T03:37:52.639Z,7.60
2019-01-13T03:38:52.630Z,7.57
2019-01-13T03:39:55.284Z,7.50
2019-01-13T03:40:52.617Z,7.55
2019-01-13T03:41:52.815Z,7.64
2019-01-13T03:42:53.770Z,7.57
2019-01-13T03:43:52.573Z,7.57
2019-01-13T03:44:52.562Z,7.62
2019-01-13T03:45:52.551Z,7.61
2019-01-13T03:46:52.778Z,7.69
2019-01-13T03:47:52.548Z,7.61
2019-01-13T03:48:53.271Z,7.68
2019-01-13T03:49:52.768Z,7.61
2019-01-13T03:50:52.493Z,7.60
2019-01-13T03:51:52.485Z,7.64
2019-01-13T03:52:53.481Z,7.58
2019-01-13T03:53:52.489Z,7.60
2019-01-13T03:54:52.488Z,7.58
2019-01-13T03:55:53.264Z,7.61
2019-01-13T03:56:52.431Z,7.58
2019-01-13T03:57:52.466Z,7.61
2019-01-13T03:58:52.419Z,7.60
2019-01-13T03:59:53.267Z,7.64
2019-01-13T04:00:52.454Z,7.50
2019-01-13T04:01:53.266Z,7.64
2019-01-13T04:02:52.676Z,7.62
2019-01-13T04:03:52.766Z,7.64
2019-01-13T04:04:52.363Z,7.54
2019-01-13T04:05:54.287Z,7.62
2019-01-13T04:06:52.371Z,7.64
2019-01-13T04:07:55.270Z,7.64
2019-01-13T04:08:53.265Z,7.62
2019-01-13T04:09:52.286Z,7.66
2019-01-13T04:10:52.301Z,7.61
2019-01-13T04:11:52.263Z,7.62
2019-01-13T04:12:52.291Z,7.60
2019-01-13T04:13:53.768Z,7.71
2019-01-13T04:14:52.275Z,7.61
2019-01-13T04:15:52.220Z,7.58
2019-01-13T04:16:53.797Z,7.61
2019-01-13T04:17:52.213Z,7.61
2019-01-13T04:18:53.265Z,7.57
2019-01-13T04:19:52.217Z,7.60
2019-01-13T04:20:54.763Z,7.55
2019-01-13T04:21:52.192Z,7.62
2019-01-13T04:22:54.762Z,7.62
2019-01-13T04:23:52.173Z,7.71
2019-01-13T04:24:53.270Z,7.62
2019-01-13T04:25:53.291Z,7.73
2019-01-13T04:26:53.767Z,7.66
2019-01-13T04:27:52.086Z,7.77
2019-01-13T04:28:52.118Z,7.78
2019-01-13T04:29:53.770Z,7.71
2019-01-13T04:30:52.104Z,7.77
2019-01-13T04:31:52.043Z,7.81
2019-01-13T04:32:52.028Z,7.80
2019-01-13T04:33:52.064Z,7.80
2019-01-13T04:34:52.054Z,7.76
2019-01-13T04:35:52.000Z,7.74
2019-01-13T04:36:51.993Z,7.87
2019-01-13T04:37:51.973Z,7.92
2019-01-13T04:38:51.963Z,7.94
2019-01-13T04:39:51.956Z,7.95
2019-01-13T04:40:56.790Z,7.91
2019-01-13T04:41:53.768Z,7.94
2019-01-13T04:42:53.780Z,7.87
2019-01-13T04:43:51.914Z,7.92
2019-01-13T04:44:51.896Z,7.87
2019-01-13T04:45:53.266Z,7.96
2019-01-13T04:46:51.915Z,7.95
2019-01-13T04:47:51.866Z,8.02
2019-01-13T04:48:52.790Z,8.02
2019-01-13T04:49:51.883Z,8.06
2019-01-13T04:50:52.763Z,8.04
2019-01-13T04:51:51.824Z,8.09
2019-01-13T04:52:51.806Z,8.12
2019-01-13T04:53:51.799Z,8.04
2019-01-13T04:54:52.762Z,8.09
2019-01-13T04:55:54.797Z,8.04
2019-01-13T04:56:52.769Z,8.20
2019-01-13T04:57:51.755Z,8.12
2019-01-13T04:58:56.270Z,8.10
2019-01-13T04:59:51.790Z,8.09
2019-01-13T05:00:51.768Z,8.13
2019-01-13T05:01:51.795Z,8.13
2019-01-13T05:02:53.290Z,8.16
2019-01-13T05:03:52.260Z,8.17
2019-01-13T05:04:51.676Z,8.16
2019-01-13T05:05:51.670Z,8.19
2019-01-13T05:06:51.658Z,8.14
2019-01-13T05:07:51.683Z,8.19
2019-01-13T05:08:51.665Z,8.24
2019-01-13T05:09:53.288Z,8.23
2019-01-13T05:10:52.268Z,8.23
2019-01-13T05:11:52.267Z,8.19
2019-01-13T05:12:52.262Z,8.21
2019-01-13T05:13:51.620Z,8.23
2019-01-13T05:14:53.772Z,8.21
2019-01-13T05:15:51.555Z,8.20
2019-01-13T05:16:51.570Z,8.17
2019-01-13T05:17:51.578Z,8.28
2019-01-13T05:18:51.525Z,8.24
2019-01-13T05:19:52.258Z,8.26
2019-01-13T05:20:51.502Z,8.24
2019-01-13T05:21:51.760Z,8.35
2019-01-13T05:22:51.478Z,8.34
2019-01-13T05:23:51.796Z,8.35
2019-01-13T05:24:51.460Z,8.31
2019-01-13T05:25:51.445Z,8.32
2019-01-13T05:26:51.774Z,8.44
2019-01-13T05:27:51.761Z,8.35
2019-01-13T05:28:54.789Z,8.31
2019-01-13T05:29:53.291Z,8.34
2019-01-13T05:30:51.392Z,8.26
2019-01-13T05:31:51.377Z,8.29
2019-01-13T05:32:51.366Z,8.31
2019-01-13T05:33:51.355Z,8.28
2019-01-13T05:34:51.414Z,8.24
2019-01-13T05:35:51.334Z,8.37
2019-01-13T05:36:51.324Z,8.37
2019-01-13T05:37:51.354Z,8.34
2019-01-13T05:38:54.279Z,8.31
2019-01-13T05:39:51.338Z,8.29
2019-01-13T05:40:53.287Z,8.32
2019-01-13T05:41:51.773Z,8.31
2019-01-13T05:42:51.256Z,8.41
2019-01-13T05:43:51.311Z,8.32
2019-01-13T05:44:51.765Z,8.44
2019-01-13T05:45:51.769Z,8.31
2019-01-13T05:46:51.215Z,8.31
2019-01-13T05:47:53.763Z,8.41
2019-01-13T05:48:51.256Z,8.32
2019-01-13T05:49:51.235Z,8.35
2019-01-13T05:50:51.207Z,8.31
2019-01-13T05:51:51.270Z,8.32
2019-01-13T05:52:52.781Z,8.34
2019-01-13T05:53:53.787Z,8.31
2019-01-13T05:54:51.133Z,8.32
2019-01-13T05:55:51.117Z,8.24
2019-01-13T05:56:51.773Z,8.37
2019-01-13T05:57:52.783Z,8.31
2019-01-13T05:58:51.764Z,8.41
2019-01-13T05:59:51.074Z,8.34
2019-01-13T06:00:51.756Z,8.41
2019-01-13T06:01:57.786Z,8.38
2019-01-13T06:02:56.277Z,8.44
2019-01-13T06:03:52.256Z,8.41
2019-01-13T06:04:51.026Z,8.44
2019-01-13T06:05:51.002Z,8.50
2019-01-13T06:06:50.998Z,8.44
2019-01-13T06:07:53.799Z,8.41
2019-01-13T06:08:51.020Z,8.44
2019-01-13T06:09:50.977Z,8.47
2019-01-13T06:10:50.946Z,8.46
2019-01-13T06:11:51.004Z,8.41
2019-01-13T06:12:51.756Z,8.41
2019-01-13T06:13:50.955Z,8.59
2019-01-13T06:14:50.912Z,8.49
2019-01-13T06:15:52.798Z,8.53
2019-01-13T06:16:50.931Z,8.53
2019-01-13T06:17:51.292Z,8.56
2019-01-13T06:18:52.777Z,8.55
2019-01-13T06:19:50.848Z,8.50
2019-01-13T06:20:52.775Z,8.55
2019-01-13T06:21:50.836Z,8.53
2019-01-13T06:22:51.274Z,8.52
2019-01-13T06:23:52.255Z,8.56
2019-01-13T06:24:51.255Z,8.56
2019-01-13T06:25:50.788Z,8.52
2019-01-13T06:26:52.777Z,8.57
2019-01-13T06:27:50.807Z,8.53
2019-01-13T06:28:50.749Z,8.47
2019-01-13T06:29:50.738Z,8.59
2019-01-13T06:30:50.765Z,8.46
2019-01-13T06:31:56.287Z,8.56
2019-01-13T06:32:53.256Z,8.38
2019-01-13T06:33:50.696Z,8.41
2019-01-13T06:34:50.684Z,8.46
2019-01-13T06:35:53.259Z,8.37
2019-01-13T06:36:55.775Z,8.42
2019-01-13T06:37:50.646Z,8.29
2019-01-13T06:38:50.766Z,8.38
2019-01-13T06:39:50.633Z,8.34
2019-01-13T06:40:50.617Z,8.29
2019-01-13T06:41:50.601Z,8.28
2019-01-13T06:42:50.767Z,8.32
2019-01-13T06:43:50.615Z,8.32
2019-01-13T06:44:51.767Z,8.29
2019-01-13T06:45:50.561Z,8.28
2019-01-13T06:46:50.551Z,8.26
2019-01-13T06:47:52.271Z,8.26
2019-01-13T06:48:51.270Z,8.29
2019-01-13T06:49:53.254Z,8.29
2019-01-13T06:50:50.546Z,8.32
2019-01-13T06:51:50.759Z,8.29
2019-01-13T06:52:50.753Z,8.29
2019-01-13T06:53:51.253Z,8.26
2019-01-13T06:54:50.461Z,8.23
2019-01-13T06:55:50.452Z,8.34
2019-01-13T06:56:53.801Z,8.29
2019-01-13T06:57:50.424Z,8.24
2019-01-13T06:58:50.427Z,8.28
2019-01-13T06:59:55.783Z,8.28
2019-01-13T07:00:50.459Z,8.28
2019-01-13T07:01:50.384Z,8.32
2019-01-13T07:02:50.375Z,8.28
2019-01-13T07:03:50.362Z,8.13
2019-01-13T07:04:51.254Z,8.31
2019-01-13T07:05:50.810Z,8.29
2019-01-13T07:06:50.373Z,8.34
2019-01-13T07:07:50.326Z,8.32
2019-01-13T07:08:50.323Z,8.32
2019-01-13T07:09:50.295Z,8.26
2019-01-13T07:10:50.296Z,8.24
2019-01-13T07:11:52.266Z,8.31
2019-01-13T07:12:51.775Z,8.26
2019-01-13T07:13:50.256Z,8.34
2019-01-13T07:14:51.752Z,8.29
2019-01-13T07:15:50.234Z,8.26
2019-01-13T07:16:50.344Z,8.31
2019-01-13T07:17:50.763Z,8.31
2019-01-13T07:18:50.195Z,8.23
2019-01-13T07:19:50.254Z,8.23
2019-01-13T07:20:50.253Z,8.29
2019-01-13T07:21:50.177Z,8.28
2019-01-13T07:22:50.195Z,8.32
2019-01-13T07:23:50.143Z,8.31
2019-01-13T07:24:50.751Z,8.23
2019-01-13T07:25:50.120Z,8.21
2019-01-13T07:26:50.116Z,8.26
2019-01-13T07:27:51.252Z,8.23
2019-01-13T07:28:50.274Z,8.21
2019-01-13T07:29:54.767Z,8.28
2019-01-13T07:30:50.060Z,8.31
2019-01-13T07:31:50.084Z,8.37
2019-01-13T07:32:51.766Z,8.26
2019-01-13T07:33:50.031Z,8.23
2019-01-13T07:34:50.062Z,8.19
2019-01-13T07:35:56.751Z,8.26
2019-01-13T07:36:50.751Z,8.31
2019-01-13T07:37:51.779Z,8.26
2019-01-13T07:38:50.266Z,8.32
2019-01-13T07:39:51.753Z,8.34
2019-01-13T07:40:49.967Z,8.31
2019-01-13T07:41:49.943Z,8.31
2019-01-13T07:42:50.748Z,8.24
2019-01-13T07:43:51.765Z,8.28
2019-01-13T07:44:51.787Z,8.31
2019-01-13T07:45:49.918Z,8.28
2019-01-13T07:46:49.935Z,8.29
2019-01-13T07:47:49.902Z,8.31
2019-01-13T07:48:49.868Z,8.31
2019-01-13T07:49:51.750Z,8.24
2019-01-13T07:50:49.846Z,8.32
2019-01-13T07:51:49.833Z,8.31
2019-01-13T07:52:50.266Z,8.31
2019-01-13T07:53:49.806Z,8.31
2019-01-13T07:54:49.795Z,8.29
2019-01-13T07:55:49.829Z,8.23
2019-01-13T07:56:50.749Z,8.24
2019-01-13T07:57:49.810Z,8.32
2019-01-13T07:58:49.795Z,8.31
2019-01-13T07:59:49.749Z,8.32
2019-01-13T08:00:49.732Z,8.31
2019-01-13T08:01:49.723Z,8.28
2019-01-13T08:02:49.770Z,8.24
2019-01-13T08:03:49.702Z,8.26
2019-01-13T08:04:49.731Z,8.32
2019-01-13T08:05:49.675Z,8.31
2019-01-13T08:06:50.353Z,8.29
2019-01-13T08:07:51.271Z,8.35
2019-01-13T08:08:49.686Z,8.50
2019-01-13T08:09:49.642Z,8.42
2019-01-13T08:10:50.251Z,8.34
2019-01-13T08:11:49.717Z,8.42
2019-01-13T08:12:49.604Z,8.47
2019-01-13T08:13:54.284Z,8.42
2019-01-13T08:14:49.580Z,8.46
2019-01-13T08:15:49.567Z,8.49
2019-01-13T08:16:49.620Z,8.57
2019-01-13T08:17:49.590Z,8.47
2019-01-13T08:18:49.537Z,8.42
2019-01-13T08:19:49.530Z,8.41
2019-01-13T08:20:49.539Z,8.39
2019-01-13T08:21:50.256Z,8.44
2019-01-13T08:22:50.750Z,8.44
2019-01-13T08:23:49.520Z,8.42
2019-01-13T08:24:51.281Z,8.46
2019-01-13T08:25:50.263Z,8.52
2019-01-13T08:26:50.248Z,8.59
2019-01-13T08:27:50.247Z,8.55
2019-01-13T08:28:49.455Z,8.55
2019-01-13T08:29:49.489Z,8.59
2019-01-13T08:30:49.397Z,8.63
2019-01-13T08:31:49.400Z,8.59
2019-01-13T08:32:50.273Z,8.62
2019-01-13T08:33:50.249Z,8.72
2019-01-13T08:34:51.294Z,8.72
2019-01-13T08:35:49.465Z,8.62
2019-01-13T08:36:49.335Z,8.60
2019-01-13T08:37:49.753Z,8.71
2019-01-13T08:38:51.262Z,8.63
2019-01-13T08:39:50.249Z,8.70
2019-01-13T08:40:49.307Z,8.68
2019-01-13T08:41:51.276Z,8.75
2019-01-13T08:43:00.265Z,8.67
2019-01-13T08:43:49.264Z,8.71
2019-01-13T08:44:49.319Z,8.75
2019-01-13T08:45:50.462Z,8.74
2019-01-13T08:46:49.769Z,8.74
2019-01-13T08:47:49.220Z,8.71
2019-01-13T08:48:49.756Z,8.80
2019-01-13T08:50:03.754Z,8.75
2019-01-13T08:50:49.248Z,8.77
2019-01-13T08:51:49.170Z,8.74
2019-01-13T08:52:49.180Z,8.80
2019-01-13T08:53:49.141Z,8.83
2019-01-13T08:54:51.767Z,8.78
2019-01-13T08:55:49.770Z,8.81
2019-01-13T08:56:49.230Z,8.74
2019-01-13T08:57:49.101Z,8.78
2019-01-13T08:58:49.272Z,8.83
2019-01-13T08:59:49.078Z,8.83
2019-01-13T09:00:49.748Z,8.88
2019-01-13T09:01:49.062Z,8.86
2019-01-13T09:02:50.766Z,8.88
2019-01-13T09:03:49.237Z,8.93
2019-01-13T09:04:49.088Z,8.98
2019-01-13T09:05:49.244Z,9.01
2019-01-13T09:06:49.031Z,8.99
2019-01-13T09:07:48.989Z,9.08
2019-01-13T09:08:48.983Z,8.99
2019-01-13T09:09:49.780Z,9.06
2019-01-13T09:10:49.022Z,9.09
2019-01-13T09:11:50.308Z,9.03
2019-01-13T09:12:48.934Z,8.99
2019-01-13T09:13:51.747Z,9.06
2019-01-13T09:14:48.933Z,9.06
2019-01-13T09:15:48.911Z,9.09
2019-01-13T09:16:48.944Z,9.14
2019-01-13T09:17:50.761Z,9.15
2019-01-13T09:18:49.250Z,9.14
2019-01-13T09:19:48.952Z,9.04
2019-01-13T09:20:48.853Z,9.08
2019-01-13T09:21:48.926Z,9.09
2019-01-13T09:22:48.827Z,9.08
2019-01-13T09:23:48.814Z,9.14
2019-01-13T09:24:49.746Z,9.16
2019-01-13T09:25:48.792Z,9.09
2019-01-13T09:26:51.128Z,9.09
2019-01-13T09:27:48.767Z,9.04
2019-01-13T09:28:48.758Z,9.11
2019-01-13T09:29:48.753Z,9.11
2019-01-13T09:30:49.259Z,9.12
2019-01-13T09:31:48.798Z,9.12
2019-01-13T09:32:48.765Z,9.01
2019-01-13T09:33:48.731Z,9.12
2019-01-13T09:34:50.279Z,9.11
2019-01-13T09:35:48.676Z,9.09
2019-01-13T09:36:50.291Z,9.11
2019-01-13T09:37:48.757Z,9.19
2019-01-13T09:38:48.647Z,9.06
2019-01-13T09:39:48.632Z,9.08
2019-01-13T09:40:48.668Z,9.09
2019-01-13T09:41:50.257Z,9.18
2019-01-13T09:42:48.628Z,9.16
2019-01-13T09:43:48.635Z,9.15
2019-01-13T09:44:50.276Z,9.12
2019-01-13T09:45:48.566Z,9.03
2019-01-13T09:46:48.743Z,9.09
2019-01-13T09:47:48.795Z,9.11
2019-01-13T09:48:48.551Z,9.18
2019-01-13T09:49:50.069Z,9.14
2019-01-13T09:50:48.508Z,9.19
2019-01-13T09:51:48.553Z,9.14
2019-01-13T09:52:48.491Z,9.14
2019-01-13T09:53:48.521Z,9.18
2019-01-13T09:54:49.744Z,9.15
2019-01-13T09:55:49.244Z,9.15
2019-01-13T09:56:48.448Z,9.15
2019-01-13T09:57:48.712Z,9.11
2019-01-13T09:58:48.446Z,9.16
2019-01-13T09:59:48.420Z,9.09
2019-01-13T10:00:49.742Z,9.22
2019-01-13T10:01:48.387Z,9.22
2019-01-13T10:02:48.390Z,9.09
2019-01-13T10:03:51.244Z,9.15
2019-01-13T10:04:49.243Z,9.19
2019-01-13T10:05:48.399Z,9.24
2019-01-13T10:06:48.333Z,9.18
2019-01-13T10:07:48.743Z,9.18
2019-01-13T10:08:48.309Z,9.14
2019-01-13T10:09:49.247Z,9.15
2019-01-13T10:10:50.248Z,9.15
2019-01-13T10:11:48.764Z,9.15
2019-01-13T10:12:48.290Z,9.18
2019-01-13T10:13:50.249Z,9.11
2019-01-13T10:14:48.256Z,9.15
2019-01-13T10:15:48.281Z,9.24
2019-01-13T10:16:48.244Z,9.19
2019-01-13T10:17:48.274Z,9.12
2019-01-13T10:18:48.222Z,9.22
2019-01-13T10:19:48.204Z,9.15
2019-01-13T10:20:48.754Z,9.15
2019-01-13T10:21:48.240Z,9.24
2019-01-13T10:22:48.151Z,9.22
2019-01-13T10:23:48.283Z,9.18
2019-01-13T10:24:48.769Z,9.18
2019-01-13T10:25:48.122Z,9.18
2019-01-13T10:26:48.172Z,9.14
2019-01-13T10:27:52.753Z,9.15
2019-01-13T10:28:48.252Z,9.03
2019-01-13T10:29:48.285Z,9.11
2019-01-13T10:30:48.060Z,9.11
2019-01-13T10:31:48.167Z,9.12
2019-01-13T10:32:58.940Z,9.14
2019-01-13T10:33:48.037Z,9.16
2019-01-13T10:34:48.022Z,9.16
2019-01-13T10:35:51.271Z,9.06
2019-01-13T10:36:48.240Z,9.11
2019-01-13T10:37:48.272Z,9.15
2019-01-13T10:38:48.022Z,9.06
2019-01-13T10:40:02.760Z,9.14
2019-01-13T10:40:49.772Z,9.11
2019-01-13T10:41:47.944Z,9.22
2019-01-13T10:42:51.239Z,9.11
2019-01-13T10:43:48.246Z,9.04
2019-01-13T10:44:48.759Z,9.12
2019-01-13T10:45:47.897Z,9.14
2019-01-13T10:46:47.887Z,9.14
2019-01-13T10:47:49.784Z,9.18
2019-01-13T10:48:47.861Z,9.18
2019-01-13T10:49:48.254Z,9.19
2019-01-13T10:50:48.839Z,9.12
2019-01-13T10:51:47.827Z,9.18
2019-01-13T10:52:54.744Z,9.23
2019-01-13T10:53:48.738Z,9.23
2019-01-13T10:54:51.252Z,9.22
2019-01-13T10:55:49.772Z,9.18
2019-01-13T10:56:48.239Z,9.16
2019-01-13T10:57:47.761Z,9.24
2019-01-13T10:58:52.745Z,9.24
2019-01-13T10:59:47.810Z,9.23
2019-01-13T11:00:47.727Z,9.19
2019-01-13T11:01:47.719Z,9.22
2019-01-13T11:02:50.246Z,9.23
2019-01-13T11:03:47.746Z,9.15
2019-01-13T11:04:47.682Z,9.19
2019-01-13T11:05:47.716Z,9.26
2019-01-13T11:06:47.728Z,9.24
2019-01-13T11:07:47.651Z,9.24
2019-01-13T11:08:49.255Z,9.19
2019-01-13T11:09:47.639Z,9.22
2019-01-13T11:10:48.740Z,9.12
2019-01-13T11:11:47.738Z,9.14
2019-01-13T11:12:47.636Z,9.08
2019-01-13T11:13:47.839Z,9.15
2019-01-13T11:14:47.573Z,9.04
2019-01-13T11:15:47.569Z,9.14
2019-01-13T11:16:47.560Z,9.23
2019-01-13T11:17:47.737Z,9.22
2019-01-13T11:18:48.740Z,9.18
2019-01-13T11:19:47.616Z,9.18
2019-01-13T11:20:52.270Z,9.15
2019-01-13T11:21:47.493Z,9.16
2019-01-13T11:22:49.253Z,9.24
2019-01-13T11:23:48.253Z,9.18
2019-01-13T11:24:48.738Z,9.18
2019-01-13T11:25:47.452Z,9.22
2019-01-13T11:26:49.261Z,9.18
2019-01-13T11:27:47.479Z,9.18
2019-01-13T11:28:49.262Z,9.19
2019-01-13T11:29:49.259Z,9.24
2019-01-13T11:30:48.238Z,9.12
2019-01-13T11:31:47.422Z,9.22
2019-01-13T11:32:47.743Z,9.15
2019-01-13T11:33:47.359Z,9.22
2019-01-13T11:34:47.362Z,9.23
2019-01-13T11:35:47.759Z,9.15
2019-01-13T11:36:49.256Z,9.23
2019-01-13T11:37:47.363Z,9.19
2019-01-13T11:38:47.740Z,9.16
2019-01-13T11:39:47.411Z,9.18
2019-01-13T11:40:47.341Z,9.24
2019-01-13T11:41:47.289Z,9.12
2019-01-13T11:42:47.256Z,9.16
2019-01-13T11:43:47.752Z,9.19
2019-01-13T11:44:47.274Z,9.22
2019-01-13T11:45:47.301Z,9.22
2019-01-13T11:46:47.295Z,9.22
2019-01-13T11:47:47.251Z,9.27
2019-01-13T11:48:48.246Z,9.24
2019-01-13T11:49:47.745Z,9.41
2019-01-13T11:50:47.203Z,9.33
2019-01-13T11:51:49.741Z,9.32
2019-01-13T11:52:47.160Z,9.29
2019-01-13T11:53:47.153Z,9.29
2019-01-13T11:54:47.174Z,9.27
2019-01-13T11:55:47.734Z,9.22
2019-01-13T11:56:47.151Z,9.18
2019-01-13T11:57:47.292Z,9.16
2019-01-13T11:58:47.749Z,9.19
2019-01-13T11:59:48.595Z,9.19
2019-01-13T12:00:47.059Z,9.19
2019-01-13T12:01:47.045Z,9.26
2019-01-13T12:02:47.734Z,9.30
2019-01-13T12:03:47.094Z,9.22
2019-01-13T12:04:47.024Z,9.24
2019-01-13T12:05:47.738Z,9.18
2019-01-13T12:06:46.989Z,9.09
2019-01-13T12:07:47.015Z,9.23
2019-01-13T12:08:47.019Z,9.16
2019-01-13T12:09:46.972Z,9.23
2019-01-13T12:10:47.738Z,9.14
2019-01-13T12:11:46.940Z,9.16
2019-01-13T12:12:47.317Z,9.23
2019-01-13T12:13:47.896Z,9.19
2019-01-13T12:15:05.257Z,9.18
2019-01-13T12:15:46.891Z,9.18
2019-01-13T12:16:47.759Z,9.22
2019-01-13T12:17:47.252Z,9.26
2019-01-13T12:18:46.857Z,9.12
2019-01-13T12:19:52.272Z,9.15
2019-01-13T12:20:48.306Z,9.16
2019-01-13T12:21:46.822Z,9.23
2019-01-13T12:22:46.900Z,9.03
2019-01-13T12:23:47.257Z,9.09
2019-01-13T12:24:49.734Z,9.09
2019-01-13T12:25:52.830Z,9.12
2019-01-13T12:26:47.245Z,9.09
2019-01-13T12:27:50.244Z,9.15
2019-01-13T12:28:46.767Z,9.11
2019-01-13T12:29:47.243Z,9.16
2019-01-13T12:30:48.265Z,9.14
2019-01-13T12:31:46.752Z,9.11
2019-01-13T12:32:48.281Z,9.14
2019-01-13T12:33:46.747Z,9.18
2019-01-13T12:34:46.744Z,9.24
2019-01-13T12:35:46.666Z,9.18
2019-01-13T12:36:46.675Z,9.24
2019-01-13T12:37:46.689Z,9.18
2019-01-13T12:38:46.642Z,9.12
2019-01-13T12:39:47.244Z,9.14
2019-01-13T12:40:47.826Z,9.19
2019-01-13T12:41:46.600Z,9.24
2019-01-13T12:42:47.236Z,9.18
2019-01-13T12:43:46.754Z,9.22
2019-01-13T12:44:46.568Z,9.23
2019-01-13T12:45:46.556Z,9.22
2019-01-13T12:46:47.252Z,9.22
2019-01-13T12:47:46.533Z,9.15
2019-01-13T12:48:46.526Z,9.16
2019-01-13T12:49:54.245Z,9.22
2019-01-13T12:50:46.507Z,9.22
2019-01-13T12:51:46.489Z,9.19
2019-01-13T12:52:46.497Z,9.23
2019-01-13T12:53:48.266Z,9.23
2019-01-13T12:54:47.261Z,9.22
2019-01-13T12:55:47.740Z,9.22
2019-01-13T12:56:47.232Z,9.22
2019-01-13T12:57:47.241Z,9.23
2019-01-13T12:58:46.480Z,9.24
2019-01-13T12:59:57.247Z,9.23
2019-01-13T13:00:46.413Z,9.34
2019-01-13T13:01:46.372Z,9.32
2019-01-13T13:02:46.737Z,9.30
2019-01-13T13:03:47.241Z,9.22
2019-01-13T13:04:48.272Z,9.16
2019-01-13T13:05:49.238Z,9.23
2019-01-13T13:06:46.320Z,9.24
2019-01-13T13:07:47.254Z,9.26
2019-01-13T13:08:46.344Z,9.19
2019-01-13T13:09:46.287Z,9.27
2019-01-13T13:10:47.302Z,9.29
2019-01-13T13:11:46.284Z,9.24
2019-01-13T13:12:46.253Z,9.16
2019-01-13T13:13:47.370Z,9.30
2019-01-13T13:14:46.299Z,9.23
2019-01-13T13:15:46.269Z,9.26
2019-01-13T13:16:46.261Z,9.22
2019-01-13T13:17:46.316Z,9.32
2019-01-13T13:18:46.227Z,9.36